sensor_id;sensor_type;location;lat;lon;timestamp;P1;durP1;ratioP1;P2;durP2;ratioP2
32198;SDS011;19221;42.656;21.156;2023-02-25T00:01:38;30.80;;;10.32;;
32198;SDS011;19221;42.656;21.156;2023-02-25T00:04:03;28.25;;;11.90;;
32198;SDS011;19221;42.656;21.156;2023-02-25T00:06:29;26.58;;;11.00;;
32198;SDS011;19221;42.656;21.156;2023-02-25T00:08:55;27.40;;;12.50;;
32198;SDS011;19221;42.656;21.156;2023-02-25T00:11:22;26.10;;;10.98;;
32198;SDS011;19221;42.656;21.156;2023-02-25T00:13:48;23.33;;;9.60;;
32198;SDS011;19221;42.656;21.156;2023-02-25T00:16:14;25.45;;;11.10;;
32198;SDS011;19221;42.656;21.156;2023-02-25T00:18:40;30.27;;;10.00;;
32198;SDS011;19221;42.656;21.156;2023-02-25T00:21:08;30.05;;;10.13;;
32198;SDS011;19221;42.656;21.156;2023-02-25T00:23:34;27.02;;;10.82;;
32198;SDS011;19221;42.656;21.156;2023-02-25T00:26:03;27.65;;;11.02;;
32198;SDS011;19221;42.656;21.156;2023-02-25T00:28:33;27.98;;;10.48;;
32198;SDS011;19221;42.656;21.156;2023-02-25T00:30:59;26.08;;;9.95;;
32198;SDS011;19221;42.656;21.156;2023-02-25T00:33:24;29.85;;;11.38;;
32198;SDS011;19221;42.656;21.156;2023-02-25T00:35:50;25.95;;;11.13;;
32198;SDS011;19221;42.656;21.156;2023-02-25T00:38:16;23.08;;;10.40;;
32198;SDS011;19221;42.656;21.156;2023-02-25T00:40:42;27.95;;;10.60;;
32198;SDS011;19221;42.656;21.156;2023-02-25T00:43:08;23.75;;;10.40;;
32198;SDS011;19221;42.656;21.156;2023-02-25T00:45:34;26.67;;;10.48;;
32198;SDS011;19221;42.656;21.156;2023-02-25T00:48:00;30.77;;;10.82;;
32198;SDS011;19221;42.656;21.156;2023-02-25T00:50:25;29.70;;;10.65;;
32198;SDS011;19221;42.656;21.156;2023-02-25T00:52:51;25.73;;;11.63;;
32198;SDS011;19221;42.656;21.156;2023-02-25T00:55:17;31.05;;;10.35;;
32198;SDS011;19221;42.656;21.156;2023-02-25T00:57:42;24.73;;;10.27;;
32198;SDS011;19221;42.656;21.156;2023-02-25T01:00:10;33.15;;;10.88;;
32198;SDS011;19221;42.656;21.156;2023-02-25T01:02:41;21.27;;;9.57;;
32198;SDS011;19221;42.656;21.156;2023-02-25T01:05:07;28.15;;;9.48;;
32198;SDS011;19221;42.656;21.156;2023-02-25T01:07:33;27.30;;;11.05;;
32198;SDS011;19221;42.656;21.156;2023-02-25T01:09:59;24.05;;;10.98;;
32198;SDS011;19221;42.656;21.156;2023-02-25T01:12:25;23.17;;;11.00;;
32198;SDS011;19221;42.656;21.156;2023-02-25T01:14:50;32.53;;;10.35;;
32198;SDS011;19221;42.656;21.156;2023-02-25T01:17:19;25.48;;;11.02;;
32198;SDS011;19221;42.656;21.156;2023-02-25T01:19:44;23.63;;;11.48;;
32198;SDS011;19221;42.656;21.156;2023-02-25T01:22:10;31.95;;;11.73;;
32198;SDS011;19221;42.656;21.156;2023-02-25T01:24:35;20.90;;;11.13;;
32198;SDS011;19221;42.656;21.156;2023-02-25T01:27:02;29.50;;;12.10;;
32198;SDS011;19221;42.656;21.156;2023-02-25T01:29:29;26.67;;;10.93;;
32198;SDS011;19221;42.656;21.156;2023-02-25T01:31:56;28.17;;;11.05;;
32198;SDS011;19221;42.656;21.156;2023-02-25T01:34:22;25.23;;;11.65;;
32198;SDS011;19221;42.656;21.156;2023-02-25T01:36:48;26.63;;;10.65;;
32198;SDS011;19221;42.656;21.156;2023-02-25T01:39:15;26.30;;;11.90;;
32198;SDS011;19221;42.656;21.156;2023-02-25T01:41:41;25.65;;;10.80;;
32198;SDS011;19221;42.656;21.156;2023-02-25T01:46:40;28.52;;;11.68;;
32198;SDS011;19221;42.656;21.156;2023-02-25T01:49:10;27.95;;;11.27;;
32198;SDS011;19221;42.656;21.156;2023-02-25T01:51:37;31.27;;;12.55;;
32198;SDS011;19221;42.656;21.156;2023-02-25T01:54:03;29.77;;;12.20;;
32198;SDS011;19221;42.656;21.156;2023-02-25T01:56:32;33.97;;;12.68;;
32198;SDS011;19221;42.656;21.156;2023-02-25T01:58:58;25.33;;;11.63;;
32198;SDS011;19221;42.656;21.156;2023-02-25T02:01:24;27.42;;;11.82;;
32198;SDS011;19221;42.656;21.156;2023-02-25T02:03:51;28.85;;;12.00;;
32198;SDS011;19221;42.656;21.156;2023-02-25T02:06:17;23.00;;;11.57;;
32198;SDS011;19221;42.656;21.156;2023-02-25T02:08:44;30.13;;;11.13;;
32198;SDS011;19221;42.656;21.156;2023-02-25T02:11:10;29.42;;;11.55;;
32198;SDS011;19221;42.656;21.156;2023-02-25T02:13:37;27.73;;;11.30;;
32198;SDS011;19221;42.656;21.156;2023-02-25T02:16:11;26.98;;;10.82;;
32198;SDS011;19221;42.656;21.156;2023-02-25T02:18:39;26.25;;;10.90;;
32198;SDS011;19221;42.656;21.156;2023-02-25T02:26:28;23.45;;;10.98;;
32198;SDS011;19221;42.656;21.156;2023-02-25T02:41:40;26.45;;;11.25;;
32198;SDS011;19221;42.656;21.156;2023-02-25T02:44:15;23.35;;;9.82;;
32198;SDS011;19221;42.656;21.156;2023-02-25T02:49:08;28.10;;;11.07;;
32198;SDS011;19221;42.656;21.156;2023-02-25T02:51:42;24.60;;;10.43;;
32198;SDS011;19221;42.656;21.156;2023-02-25T02:54:09;23.92;;;11.35;;
32198;SDS011;19221;42.656;21.156;2023-02-25T02:56:36;24.67;;;10.32;;
32198;SDS011;19221;42.656;21.156;2023-02-25T02:59:05;21.27;;;9.50;;
32198;SDS011;19221;42.656;21.156;2023-02-25T03:01:42;20.63;;;9.25;;
32198;SDS011;19221;42.656;21.156;2023-02-25T03:04:11;24.33;;;9.57;;
32198;SDS011;19221;42.656;21.156;2023-02-25T03:06:45;25.50;;;10.82;;
32198;SDS011;19221;42.656;21.156;2023-02-25T03:09:13;21.17;;;9.52;;
32198;SDS011;19221;42.656;21.156;2023-02-25T03:11:40;21.05;;;9.38;;
32198;SDS011;19221;42.656;21.156;2023-02-25T03:14:05;26.05;;;10.25;;
32198;SDS011;19221;42.656;21.156;2023-02-25T03:16:40;26.85;;;9.48;;
32198;SDS011;19221;42.656;21.156;2023-02-25T03:21:37;22.95;;;10.32;;
32198;SDS011;19221;42.656;21.156;2023-02-25T03:24:03;25.45;;;10.07;;
32198;SDS011;19221;42.656;21.156;2023-02-25T03:26:31;28.58;;;10.73;;
32198;SDS011;19221;42.656;21.156;2023-02-25T03:28:57;19.17;;;9.68;;
32198;SDS011;19221;42.656;21.156;2023-02-25T03:36:24;20.90;;;9.65;;
32198;SDS011;19221;42.656;21.156;2023-02-25T03:38:54;21.25;;;10.57;;
32198;SDS011;19221;42.656;21.156;2023-02-25T03:41:24;26.25;;;10.60;;
32198;SDS011;19221;42.656;21.156;2023-02-25T03:43:52;23.90;;;11.00;;
32198;SDS011;19221;42.656;21.156;2023-02-25T03:46:20;24.85;;;10.60;;
32198;SDS011;19221;42.656;21.156;2023-02-25T03:48:47;22.75;;;10.15;;
32198;SDS011;19221;42.656;21.156;2023-02-25T03:51:14;21.92;;;10.75;;
32198;SDS011;19221;42.656;21.156;2023-02-25T03:53:40;20.27;;;10.85;;
32198;SDS011;19221;42.656;21.156;2023-02-25T03:56:07;25.92;;;10.85;;
32198;SDS011;19221;42.656;21.156;2023-02-25T03:58:37;24.30;;;10.98;;
32198;SDS011;19221;42.656;21.156;2023-02-25T04:01:14;22.60;;;10.45;;
32198;SDS011;19221;42.656;21.156;2023-02-25T04:03:40;27.23;;;10.93;;
32198;SDS011;19221;42.656;21.156;2023-02-25T04:06:05;30.58;;;11.20;;
32198;SDS011;19221;42.656;21.156;2023-02-25T04:08:31;29.60;;;10.90;;
32198;SDS011;19221;42.656;21.156;2023-02-25T04:10:57;22.48;;;10.43;;
32198;SDS011;19221;42.656;21.156;2023-02-25T04:13:22;33.75;;;10.48;;
32198;SDS011;19221;42.656;21.156;2023-02-25T04:15:48;24.10;;;9.98;;
32198;SDS011;19221;42.656;21.156;2023-02-25T04:18:14;19.88;;;10.30;;
32198;SDS011;19221;42.656;21.156;2023-02-25T04:20:40;21.63;;;10.10;;
32198;SDS011;19221;42.656;21.156;2023-02-25T04:23:06;26.38;;;9.88;;
32198;SDS011;19221;42.656;21.156;2023-02-25T04:25:32;24.08;;;10.55;;
32198;SDS011;19221;42.656;21.156;2023-02-25T04:27:58;29.25;;;10.38;;
32198;SDS011;19221;42.656;21.156;2023-02-25T04:30:24;22.20;;;10.38;;
32198;SDS011;19221;42.656;21.156;2023-02-25T04:32:50;21.42;;;11.02;;
32198;SDS011;19221;42.656;21.156;2023-02-25T04:35:16;26.67;;;10.13;;
32198;SDS011;19221;42.656;21.156;2023-02-25T04:37:41;25.08;;;9.73;;
32198;SDS011;19221;42.656;21.156;2023-02-25T04:40:09;24.40;;;10.05;;
32198;SDS011;19221;42.656;21.156;2023-02-25T04:42:38;22.52;;;9.85;;
32198;SDS011;19221;42.656;21.156;2023-02-25T04:45:04;26.42;;;9.80;;
32198;SDS011;19221;42.656;21.156;2023-02-25T04:47:30;25.77;;;9.68;;
32198;SDS011;19221;42.656;21.156;2023-02-25T04:49:56;20.20;;;9.38;;
32198;SDS011;19221;42.656;21.156;2023-02-25T04:52:22;20.15;;;9.52;;
32198;SDS011;19221;42.656;21.156;2023-02-25T04:54:48;21.85;;;8.82;;
32198;SDS011;19221;42.656;21.156;2023-02-25T04:57:14;25.70;;;8.40;;
32198;SDS011;19221;42.656;21.156;2023-02-25T04:59:40;18.48;;;8.25;;
32198;SDS011;19221;42.656;21.156;2023-02-25T05:02:06;23.33;;;8.13;;
32198;SDS011;19221;42.656;21.156;2023-02-25T05:04:32;21.05;;;7.93;;
32198;SDS011;19221;42.656;21.156;2023-02-25T05:06:59;18.73;;;7.78;;
32198;SDS011;19221;42.656;21.156;2023-02-25T05:09:24;23.48;;;8.00;;
32198;SDS011;19221;42.656;21.156;2023-02-25T05:11:50;18.63;;;8.02;;
32198;SDS011;19221;42.656;21.156;2023-02-25T05:14:16;24.10;;;8.60;;
32198;SDS011;19221;42.656;21.156;2023-02-25T05:16:41;28.25;;;8.35;;
32198;SDS011;19221;42.656;21.156;2023-02-25T05:19:07;21.45;;;8.27;;
32198;SDS011;19221;42.656;21.156;2023-02-25T05:21:33;25.27;;;7.43;;
32198;SDS011;19221;42.656;21.156;2023-02-25T05:23:59;26.42;;;8.30;;
32198;SDS011;19221;42.656;21.156;2023-02-25T05:26:24;20.98;;;7.88;;
32198;SDS011;19221;42.656;21.156;2023-02-25T05:28:54;30.33;;;8.85;;
32198;SDS011;19221;42.656;21.156;2023-02-25T05:31:20;21.85;;;8.32;;
32198;SDS011;19221;42.656;21.156;2023-02-25T05:33:46;21.52;;;8.60;;
32198;SDS011;19221;42.656;21.156;2023-02-25T05:36:12;23.92;;;9.18;;
32198;SDS011;19221;42.656;21.156;2023-02-25T05:38:39;23.08;;;9.95;;
32198;SDS011;19221;42.656;21.156;2023-02-25T05:41:05;45.67;;;10.88;;
32198;SDS011;19221;42.656;21.156;2023-02-25T05:43:31;32.80;;;10.93;;
32198;SDS011;19221;42.656;21.156;2023-02-25T05:45:58;28.70;;;10.75;;
32198;SDS011;19221;42.656;21.156;2023-02-25T05:48:24;29.30;;;11.63;;
32198;SDS011;19221;42.656;21.156;2023-02-25T05:50:50;30.38;;;12.35;;
32198;SDS011;19221;42.656;21.156;2023-02-25T05:53:17;31.75;;;13.70;;
32198;SDS011;19221;42.656;21.156;2023-02-25T05:55:43;37.13;;;13.43;;
32198;SDS011;19221;42.656;21.156;2023-02-25T05:58:09;32.50;;;12.85;;
32198;SDS011;19221;42.656;21.156;2023-02-25T06:00:35;26.10;;;12.00;;
32198;SDS011;19221;42.656;21.156;2023-02-25T06:03:01;28.95;;;11.57;;
32198;SDS011;19221;42.656;21.156;2023-02-25T06:05:26;30.13;;;11.15;;
32198;SDS011;19221;42.656;21.156;2023-02-25T06:07:55;24.98;;;10.80;;
32198;SDS011;19221;42.656;21.156;2023-02-25T06:10:21;24.60;;;11.05;;
32198;SDS011;19221;42.656;21.156;2023-02-25T06:12:47;27.55;;;11.57;;
32198;SDS011;19221;42.656;21.156;2023-02-25T06:15:13;33.03;;;12.05;;
32198;SDS011;19221;42.656;21.156;2023-02-25T06:17:39;28.73;;;12.32;;
32198;SDS011;19221;42.656;21.156;2023-02-25T06:20:05;28.52;;;12.23;;
32198;SDS011;19221;42.656;21.156;2023-02-25T06:22:31;23.15;;;12.23;;
32198;SDS011;19221;42.656;21.156;2023-02-25T06:24:56;46.83;;;13.40;;
32198;SDS011;19221;42.656;21.156;2023-02-25T06:27:22;33.40;;;12.25;;
32198;SDS011;19221;42.656;21.156;2023-02-25T06:29:48;36.38;;;11.82;;
32198;SDS011;19221;42.656;21.156;2023-02-25T06:32:14;37.33;;;11.57;;
32198;SDS011;19221;42.656;21.156;2023-02-25T06:34:39;30.92;;;11.00;;
32198;SDS011;19221;42.656;21.156;2023-02-25T06:37:05;25.38;;;11.23;;
32198;SDS011;19221;42.656;21.156;2023-02-25T06:39:32;30.70;;;11.32;;
32198;SDS011;19221;42.656;21.156;2023-02-25T06:41:57;30.92;;;12.38;;
32198;SDS011;19221;42.656;21.156;2023-02-25T06:44:23;30.33;;;12.52;;
32198;SDS011;19221;42.656;21.156;2023-02-25T06:46:49;29.63;;;12.65;;
32198;SDS011;19221;42.656;21.156;2023-02-25T06:49:16;40.25;;;14.35;;
32198;SDS011;19221;42.656;21.156;2023-02-25T06:51:42;31.73;;;13.48;;
32198;SDS011;19221;42.656;21.156;2023-02-25T06:54:08;33.33;;;14.25;;
32198;SDS011;19221;42.656;21.156;2023-02-25T06:56:33;43.45;;;15.50;;
32198;SDS011;19221;42.656;21.156;2023-02-25T06:58:59;28.48;;;13.30;;
32198;SDS011;19221;42.656;21.156;2023-02-25T07:01:25;33.47;;;14.55;;
32198;SDS011;19221;42.656;21.156;2023-02-25T07:03:51;39.15;;;14.57;;
32198;SDS011;19221;42.656;21.156;2023-02-25T07:06:17;32.60;;;13.75;;
32198;SDS011;19221;42.656;21.156;2023-02-25T07:08:45;35.90;;;14.30;;
32198;SDS011;19221;42.656;21.156;2023-02-25T07:16:08;32.17;;;13.25;;
32198;SDS011;19221;42.656;21.156;2023-02-25T07:18:34;33.42;;;14.00;;
32198;SDS011;19221;42.656;21.156;2023-02-25T07:21:00;31.20;;;13.77;;
32198;SDS011;19221;42.656;21.156;2023-02-25T07:23:25;33.10;;;13.82;;
32198;SDS011;19221;42.656;21.156;2023-02-25T07:25:51;34.92;;;12.93;;
32198;SDS011;19221;42.656;21.156;2023-02-25T07:28:17;28.00;;;12.10;;
32198;SDS011;19221;42.656;21.156;2023-02-25T07:30:42;37.53;;;12.27;;
32198;SDS011;19221;42.656;21.156;2023-02-25T07:33:08;27.70;;;11.50;;
32198;SDS011;19221;42.656;21.156;2023-02-25T07:35:33;25.50;;;11.95;;
32198;SDS011;19221;42.656;21.156;2023-02-25T07:37:59;37.75;;;11.15;;
32198;SDS011;19221;42.656;21.156;2023-02-25T07:40:25;27.27;;;11.90;;
32198;SDS011;19221;42.656;21.156;2023-02-25T07:42:52;25.75;;;11.80;;
32198;SDS011;19221;42.656;21.156;2023-02-25T07:45:17;33.53;;;12.02;;
32198;SDS011;19221;42.656;21.156;2023-02-25T07:47:43;30.05;;;10.57;;
32198;SDS011;19221;42.656;21.156;2023-02-25T07:50:09;25.33;;;8.95;;
32198;SDS011;19221;42.656;21.156;2023-02-25T07:52:35;22.48;;;9.60;;
32198;SDS011;19221;42.656;21.156;2023-02-25T07:55:02;29.17;;;9.43;;
32198;SDS011;19221;42.656;21.156;2023-02-25T07:57:28;27.35;;;8.77;;
32198;SDS011;19221;42.656;21.156;2023-02-25T07:59:53;28.95;;;7.80;;
32198;SDS011;19221;42.656;21.156;2023-02-25T08:02:19;19.90;;;8.23;;
32198;SDS011;19221;42.656;21.156;2023-02-25T08:04:46;27.80;;;9.30;;
32198;SDS011;19221;42.656;21.156;2023-02-25T08:07:11;39.78;;;9.40;;
32198;SDS011;19221;42.656;21.156;2023-02-25T08:09:37;29.55;;;9.13;;
32198;SDS011;19221;42.656;21.156;2023-02-25T08:12:03;36.15;;;9.95;;
32198;SDS011;19221;42.656;21.156;2023-02-25T08:14:30;28.33;;;7.82;;
32198;SDS011;19221;42.656;21.156;2023-02-25T08:16:55;28.88;;;8.65;;
32198;SDS011;19221;42.656;21.156;2023-02-25T08:19:21;33.33;;;8.32;;
32198;SDS011;19221;42.656;21.156;2023-02-25T08:21:47;34.05;;;9.63;;
32198;SDS011;19221;42.656;21.156;2023-02-25T08:24:12;29.83;;;8.85;;
32198;SDS011;19221;42.656;21.156;2023-02-25T08:26:39;28.85;;;8.30;;
32198;SDS011;19221;42.656;21.156;2023-02-25T08:29:05;36.88;;;10.02;;
32198;SDS011;19221;42.656;21.156;2023-02-25T08:31:32;49.13;;;10.52;;
32198;SDS011;19221;42.656;21.156;2023-02-25T08:33:58;26.60;;;9.93;;
32198;SDS011;19221;42.656;21.156;2023-02-25T08:36:25;27.77;;;9.80;;
32198;SDS011;19221;42.656;21.156;2023-02-25T08:38:51;25.35;;;9.70;;
32198;SDS011;19221;42.656;21.156;2023-02-25T08:41:18;30.65;;;9.48;;
32198;SDS011;19221;42.656;21.156;2023-02-25T08:43:46;25.77;;;8.73;;
32198;SDS011;19221;42.656;21.156;2023-02-25T08:46:12;31.05;;;10.40;;
32198;SDS011;19221;42.656;21.156;2023-02-25T08:48:38;22.95;;;8.55;;
32198;SDS011;19221;42.656;21.156;2023-02-25T08:51:07;26.58;;;9.23;;
32198;SDS011;19221;42.656;21.156;2023-02-25T08:53:37;31.50;;;9.82;;
32198;SDS011;19221;42.656;21.156;2023-02-25T08:56:03;37.88;;;9.88;;
32198;SDS011;19221;42.656;21.156;2023-02-25T08:58:29;24.40;;;9.18;;
32198;SDS011;19221;42.656;21.156;2023-02-25T09:00:55;31.38;;;10.35;;
32198;SDS011;19221;42.656;21.156;2023-02-25T09:03:21;26.40;;;8.73;;
32198;SDS011;19221;42.656;21.156;2023-02-25T09:05:50;26.20;;;10.30;;
32198;SDS011;19221;42.656;21.156;2023-02-25T09:08:16;20.08;;;8.15;;
32198;SDS011;19221;42.656;21.156;2023-02-25T09:10:42;26.17;;;7.95;;
32198;SDS011;19221;42.656;21.156;2023-02-25T09:13:07;23.88;;;8.75;;
32198;SDS011;19221;42.656;21.156;2023-02-25T09:15:33;31.10;;;9.77;;
32198;SDS011;19221;42.656;21.156;2023-02-25T09:17:59;38.53;;;8.95;;
32198;SDS011;19221;42.656;21.156;2023-02-25T09:20:24;38.10;;;8.35;;
32198;SDS011;19221;42.656;21.156;2023-02-25T09:22:51;22.05;;;7.35;;
32198;SDS011;19221;42.656;21.156;2023-02-25T09:25:16;26.77;;;7.65;;
32198;SDS011;19221;42.656;21.156;2023-02-25T09:27:42;32.63;;;7.78;;
32198;SDS011;19221;42.656;21.156;2023-02-25T09:30:08;42.22;;;8.07;;
32198;SDS011;19221;42.656;21.156;2023-02-25T09:32:33;27.50;;;8.32;;
32198;SDS011;19221;42.656;21.156;2023-02-25T09:34:59;39.17;;;8.00;;
32198;SDS011;19221;42.656;21.156;2023-02-25T09:37:26;34.17;;;11.07;;
32198;SDS011;19221;42.656;21.156;2023-02-25T09:39:52;39.67;;;8.90;;
32198;SDS011;19221;42.656;21.156;2023-02-25T09:42:19;48.63;;;8.48;;
32198;SDS011;19221;42.656;21.156;2023-02-25T09:47:16;66.30;;;9.32;;
32198;SDS011;19221;42.656;21.156;2023-02-25T09:49:55;62.25;;;8.80;;
32198;SDS011;19221;42.656;21.156;2023-02-25T09:57:41;30.83;;;6.65;;
32198;SDS011;19221;42.656;21.156;2023-02-25T10:00:19;43.45;;;7.55;;
32198;SDS011;19221;42.656;21.156;2023-02-25T10:10:19;26.30;;;6.88;;
32198;SDS011;19221;42.656;21.156;2023-02-25T10:12:56;24.70;;;6.68;;
32198;SDS011;19221;42.656;21.156;2023-02-25T10:15:26;23.25;;;6.45;;
32198;SDS011;19221;42.656;21.156;2023-02-25T10:25:28;42.15;;;7.82;;
32198;SDS011;19221;42.656;21.156;2023-02-25T10:28:00;28.77;;;7.13;;
32198;SDS011;19221;42.656;21.156;2023-02-25T10:30:27;30.60;;;6.97;;
32198;SDS011;19221;42.656;21.156;2023-02-25T10:32:55;29.38;;;9.35;;
32198;SDS011;19221;42.656;21.156;2023-02-25T10:37:47;28.40;;;8.23;;
32198;SDS011;19221;42.656;21.156;2023-02-25T10:40:15;23.88;;;7.07;;
32198;SDS011;19221;42.656;21.156;2023-02-25T10:42:49;30.13;;;7.20;;
32198;SDS011;19221;42.656;21.156;2023-02-25T10:45:25;33.50;;;8.30;;
32198;SDS011;19221;42.656;21.156;2023-02-25T10:48:24;32.25;;;7.53;;
32198;SDS011;19221;42.656;21.156;2023-02-25T10:50:43;22.13;;;7.43;;
32198;SDS011;19221;42.656;21.156;2023-02-25T10:53:25;25.38;;;7.57;;
32198;SDS011;19221;42.656;21.156;2023-02-25T10:55:51;33.33;;;6.97;;
32198;SDS011;19221;42.656;21.156;2023-02-25T10:58:32;23.25;;;7.10;;
32198;SDS011;19221;42.656;21.156;2023-02-25T11:01:00;23.77;;;7.25;;
32198;SDS011;19221;42.656;21.156;2023-02-25T11:03:29;29.13;;;8.43;;
32198;SDS011;19221;42.656;21.156;2023-02-25T11:08:39;27.88;;;7.50;;
32198;SDS011;19221;42.656;21.156;2023-02-25T11:13:44;19.08;;;7.35;;
32198;SDS011;19221;42.656;21.156;2023-02-25T11:16:17;18.20;;;6.50;;
32198;SDS011;19221;42.656;21.156;2023-02-25T11:18:43;31.02;;;8.85;;
32198;SDS011;19221;42.656;21.156;2023-02-25T11:21:12;37.65;;;9.35;;
32198;SDS011;19221;42.656;21.156;2023-02-25T11:26:04;21.98;;;7.43;;
32198;SDS011;19221;42.656;21.156;2023-02-25T11:31:03;26.80;;;7.72;;
32198;SDS011;19221;42.656;21.156;2023-02-25T11:33:33;30.00;;;7.45;;
32198;SDS011;19221;42.656;21.156;2023-02-25T11:36:00;20.60;;;6.60;;
32198;SDS011;19221;42.656;21.156;2023-02-25T11:38:32;24.08;;;7.18;;
32198;SDS011;19221;42.656;21.156;2023-02-25T11:40:58;26.05;;;6.80;;
32198;SDS011;19221;42.656;21.156;2023-02-25T11:43:25;20.38;;;7.20;;
32198;SDS011;19221;42.656;21.156;2023-02-25T11:45:53;21.83;;;8.20;;
32198;SDS011;19221;42.656;21.156;2023-02-25T11:48:20;28.02;;;6.85;;
32198;SDS011;19221;42.656;21.156;2023-02-25T11:50:55;30.50;;;7.78;;
32198;SDS011;19221;42.656;21.156;2023-02-25T11:53:40;20.83;;;7.03;;
32198;SDS011;19221;42.656;21.156;2023-02-25T11:56:11;25.88;;;8.38;;
32198;SDS011;19221;42.656;21.156;2023-02-25T12:24:43;21.13;;;6.50;;
32198;SDS011;19221;42.656;21.156;2023-02-25T12:39:46;34.70;;;8.10;;
32198;SDS011;19221;42.656;21.156;2023-02-25T12:44:50;22.13;;;6.88;;
32198;SDS011;19221;42.656;21.156;2023-02-25T13:13:48;26.40;;;7.30;;
32198;SDS011;19221;42.656;21.156;2023-02-25T13:21:38;21.65;;;6.15;;
32198;SDS011;19221;42.656;21.156;2023-02-25T13:26:39;21.85;;;6.63;;
32198;SDS011;19221;42.656;21.156;2023-02-25T13:30:10;26.95;;;6.82;;
32198;SDS011;19221;42.656;21.156;2023-02-25T13:42:40;25.65;;;8.95;;
32198;SDS011;19221;42.656;21.156;2023-02-25T14:23:21;25.08;;;6.90;;
32198;SDS011;19221;42.656;21.156;2023-02-25T14:33:19;22.00;;;6.55;;
32198;SDS011;19221;42.656;21.156;2023-02-25T14:43:51;23.20;;;7.20;;
32198;SDS011;19221;42.656;21.156;2023-02-25T14:48:59;25.55;;;9.07;;
32198;SDS011;19221;42.656;21.156;2023-02-25T14:51:39;20.23;;;6.70;;
32198;SDS011;19221;42.656;21.156;2023-02-25T15:04:40;26.42;;;7.75;;
32198;SDS011;19221;42.656;21.156;2023-02-25T15:07:16;20.63;;;8.02;;
32198;SDS011;19221;42.656;21.156;2023-02-25T15:25:33;19.65;;;9.25;;
32198;SDS011;19221;42.656;21.156;2023-02-25T15:27:59;17.20;;;8.63;;
32198;SDS011;19221;42.656;21.156;2023-02-25T15:30:26;20.75;;;8.05;;
32198;SDS011;19221;42.656;21.156;2023-02-25T15:33:13;22.70;;;7.50;;
32198;SDS011;19221;42.656;21.156;2023-02-25T15:38:09;21.20;;;7.20;;
32198;SDS011;19221;42.656;21.156;2023-02-25T15:45:39;24.13;;;9.90;;
32198;SDS011;19221;42.656;21.156;2023-02-25T15:53:09;24.15;;;6.60;;
32198;SDS011;19221;42.656;21.156;2023-02-25T15:55:39;16.63;;;7.18;;
32198;SDS011;19221;42.656;21.156;2023-02-25T15:58:37;24.65;;;8.13;;
32198;SDS011;19221;42.656;21.156;2023-02-25T16:00:55;22.90;;;9.48;;
32198;SDS011;19221;42.656;21.156;2023-02-25T16:06:00;28.10;;;10.98;;
32198;SDS011;19221;42.656;21.156;2023-02-25T16:08:29;35.95;;;12.70;;
32198;SDS011;19221;42.656;21.156;2023-02-25T16:10:58;30.35;;;11.45;;
32198;SDS011;19221;42.656;21.156;2023-02-25T16:13:25;29.63;;;11.25;;
32198;SDS011;19221;42.656;21.156;2023-02-25T16:15:52;21.52;;;9.05;;
32198;SDS011;19221;42.656;21.156;2023-02-25T16:18:22;19.45;;;8.63;;
32198;SDS011;19221;42.656;21.156;2023-02-25T16:20:50;17.90;;;8.20;;
32198;SDS011;19221;42.656;21.156;2023-02-25T16:23:17;24.60;;;7.38;;
32198;SDS011;19221;42.656;21.156;2023-02-25T16:25:51;22.92;;;7.63;;
32198;SDS011;19221;42.656;21.156;2023-02-25T16:28:27;23.05;;;8.10;;
32198;SDS011;19221;42.656;21.156;2023-02-25T16:31:01;15.98;;;6.68;;
32198;SDS011;19221;42.656;21.156;2023-02-25T16:33:38;19.88;;;7.30;;
32198;SDS011;19221;42.656;21.156;2023-02-25T16:38:56;16.92;;;7.93;;
32198;SDS011;19221;42.656;21.156;2023-02-25T16:41:21;20.80;;;7.43;;
32198;SDS011;19221;42.656;21.156;2023-02-25T16:43:47;22.00;;;7.80;;
32198;SDS011;19221;42.656;21.156;2023-02-25T16:46:14;30.63;;;8.73;;
32198;SDS011;19221;42.656;21.156;2023-02-25T16:48:48;21.70;;;9.05;;
32198;SDS011;19221;42.656;21.156;2023-02-25T16:51:18;23.17;;;9.23;;
32198;SDS011;19221;42.656;21.156;2023-02-25T16:53:45;26.40;;;8.70;;
32198;SDS011;19221;42.656;21.156;2023-02-25T16:56:32;23.90;;;8.50;;
32198;SDS011;19221;42.656;21.156;2023-02-25T16:59:19;24.80;;;9.63;;
32198;SDS011;19221;42.656;21.156;2023-02-25T17:02:02;23.52;;;9.75;;
32198;SDS011;19221;42.656;21.156;2023-02-25T17:04:31;25.15;;;8.77;;
32198;SDS011;19221;42.656;21.156;2023-02-25T17:07:09;22.70;;;7.95;;
32198;SDS011;19221;42.656;21.156;2023-02-25T17:09:35;26.27;;;8.95;;
32198;SDS011;19221;42.656;21.156;2023-02-25T17:12:01;24.27;;;8.93;;
32198;SDS011;19221;42.656;21.156;2023-02-25T17:14:28;27.13;;;9.20;;
32198;SDS011;19221;42.656;21.156;2023-02-25T17:16:54;27.08;;;9.52;;
32198;SDS011;19221;42.656;21.156;2023-02-25T17:19:21;25.85;;;9.25;;
32198;SDS011;19221;42.656;21.156;2023-02-25T17:21:52;26.88;;;9.88;;
32198;SDS011;19221;42.656;21.156;2023-02-25T17:24:18;34.33;;;10.23;;
32198;SDS011;19221;42.656;21.156;2023-02-25T17:26:46;32.80;;;11.00;;
32198;SDS011;19221;42.656;21.156;2023-02-25T17:29:13;22.77;;;9.98;;
32198;SDS011;19221;42.656;21.156;2023-02-25T17:31:49;31.30;;;10.85;;
32198;SDS011;19221;42.656;21.156;2023-02-25T17:34:16;29.75;;;11.25;;
32198;SDS011;19221;42.656;21.156;2023-02-25T17:36:42;35.70;;;14.07;;
32198;SDS011;19221;42.656;21.156;2023-02-25T17:41:38;46.17;;;20.00;;
32198;SDS011;19221;42.656;21.156;2023-02-25T17:44:09;57.63;;;23.27;;
32198;SDS011;19221;42.656;21.156;2023-02-25T17:46:36;46.53;;;17.42;;
32198;SDS011;19221;42.656;21.156;2023-02-25T17:49:03;40.05;;;18.23;;
32198;SDS011;19221;42.656;21.156;2023-02-25T17:51:35;37.00;;;16.38;;
32198;SDS011;19221;42.656;21.156;2023-02-25T17:54:35;38.05;;;15.88;;
32198;SDS011;19221;42.656;21.156;2023-02-25T17:56:54;35.70;;;15.80;;
32198;SDS011;19221;42.656;21.156;2023-02-25T18:01:53;29.00;;;11.93;;
32198;SDS011;19221;42.656;21.156;2023-02-25T18:06:57;36.70;;;16.00;;
32198;SDS011;19221;42.656;21.156;2023-02-25T18:09:36;36.80;;;15.00;;
32198;SDS011;19221;42.656;21.156;2023-02-25T18:12:03;26.00;;;11.48;;
32198;SDS011;19221;42.656;21.156;2023-02-25T18:14:36;30.50;;;13.25;;
32198;SDS011;19221;42.656;21.156;2023-02-25T18:17:13;29.50;;;12.63;;
32198;SDS011;19221;42.656;21.156;2023-02-25T18:19:41;36.30;;;14.10;;
32198;SDS011;19221;42.656;21.156;2023-02-25T18:22:22;32.38;;;12.93;;
32198;SDS011;19221;42.656;21.156;2023-02-25T18:24:52;28.52;;;11.40;;
32198;SDS011;19221;42.656;21.156;2023-02-25T18:29:44;34.75;;;10.35;;
32198;SDS011;19221;42.656;21.156;2023-02-25T18:32:10;26.75;;;10.68;;
32198;SDS011;19221;42.656;21.156;2023-02-25T18:34:35;29.65;;;11.10;;
32198;SDS011;19221;42.656;21.156;2023-02-25T18:37:01;24.20;;;10.82;;
32198;SDS011;19221;42.656;21.156;2023-02-25T18:39:27;27.48;;;10.68;;
32198;SDS011;19221;42.656;21.156;2023-02-25T18:41:53;26.48;;;10.82;;
32198;SDS011;19221;42.656;21.156;2023-02-25T18:44:18;25.73;;;11.00;;
32198;SDS011;19221;42.656;21.156;2023-02-25T18:46:45;31.50;;;11.38;;
32198;SDS011;19221;42.656;21.156;2023-02-25T18:49:11;34.20;;;15.05;;